createdAt,value
2022-09-14T00:00:02.769Z,22.21
2022-09-14T00:00:15.153Z,22.23
2022-09-14T00:00:27.046Z,22.17
2022-09-14T00:00:42.091Z,22.19
2022-09-14T00:01:14.358Z,22.17
2022-09-14T00:01:28.591Z,22.16
2022-09-14T00:01:43.787Z,22.17
2022-09-14T00:01:55.904Z,22.17
2022-09-14T00:02:08.020Z,22.17
2022-09-14T00:02:20.182Z,22.16
2022-09-14T00:02:32.332Z,22.16
2022-09-14T00:02:46.664Z,22.11
2022-09-14T00:02:59.245Z,22.12
2022-09-14T00:03:11.725Z,22.13
2022-09-14T00:03:23.872Z,22.14
2022-09-14T00:03:36.622Z,22.16
2022-09-14T00:03:52.918Z,22.18
2022-09-14T00:04:08.626Z,22.18
2022-09-14T00:04:20.527Z,22.19
2022-09-14T00:04:32.482Z,22.20
2022-09-14T00:04:44.369Z,22.19
2022-09-14T00:04:56.242Z,22.20
2022-09-14T00:05:08.501Z,22.20
2022-09-14T00:05:20.475Z,22.20
2022-09-14T00:05:35.090Z,22.21
2022-09-14T00:05:47.605Z,22.20
2022-09-14T00:06:10.992Z,22.17
2022-09-14T00:06:22.945Z,22.01
2022-09-14T00:06:35.438Z,22.02
2022-09-14T00:06:47.780Z,22.03
2022-09-14T00:06:59.703Z,22.07
2022-09-14T00:07:11.580Z,22.09
2022-09-14T00:07:23.463Z,22.10
2022-09-14T00:07:35.345Z,22.11
2022-09-14T00:07:47.578Z,22.12
2022-09-14T00:07:59.468Z,22.12
2022-09-14T00:08:12.182Z,22.14
2022-09-14T00:08:24.034Z,22.13
2022-09-14T00:08:36.331Z,22.01
2022-09-14T00:08:52.995Z,22.01
2022-09-14T00:09:08.567Z,22.05
2022-09-14T00:09:23.134Z,22.09
2022-09-14T00:09:35.101Z,22.08
2022-09-14T00:09:47.297Z,22.03
2022-09-14T00:09:59.244Z,22.05
2022-09-14T00:10:11.199Z,21.92
2022-09-14T00:10:23.409Z,21.91
2022-09-14T00:10:39.889Z,21.94
2022-09-14T00:10:51.786Z,21.98
2022-09-14T00:11:06.402Z,22.00
2022-09-14T00:11:19.345Z,22.03
2022-09-14T00:11:32.884Z,22.03
2022-09-14T00:11:45.230Z,22.04
2022-09-14T00:11:57.174Z,22.04
2022-09-14T00:12:10.228Z,22.06
2022-09-14T00:12:22.168Z,22.07
2022-09-14T00:12:34.046Z,22.08
2022-09-14T00:12:45.958Z,22.10
2022-09-14T00:12:58.148Z,22.11
2022-09-14T00:13:12.048Z,22.12
2022-09-14T00:13:23.937Z,22.12
2022-09-14T00:13:36.369Z,22.11
2022-09-14T00:13:49.002Z,22.10
2022-09-14T00:14:02.336Z,22.08
2022-09-14T00:14:15.401Z,22.03
2022-09-14T00:14:27.290Z,22.01
2022-09-14T00:14:39.933Z,22.01
2022-09-14T00:14:51.828Z,22.01
2022-09-14T00:15:04.570Z,22.02
2022-09-14T00:15:16.603Z,22.03
2022-09-14T00:15:28.517Z,22.02
2022-09-14T00:15:43.341Z,22.04
2022-09-14T00:15:55.248Z,22.03
2022-09-14T00:16:12.321Z,22.02
2022-09-14T00:16:28.897Z,22.01
2022-09-14T00:16:41.874Z,22.00
2022-09-14T00:16:53.893Z,22.01
2022-09-14T00:17:05.972Z,22.00
2022-09-14T00:17:17.940Z,21.99
2022-09-14T00:17:29.844Z,21.99
2022-09-14T00:17:41.731Z,21.97
2022-09-14T00:17:53.596Z,21.94
2022-09-14T00:18:07.116Z,21.88
2022-09-14T00:18:19.004Z,21.87
2022-09-14T00:18:31.657Z,21.88
2022-09-14T00:18:44.438Z,21.87
2022-09-14T00:19:09.091Z,21.85
2022-09-14T00:19:26.781Z,21.82
2022-09-14T00:19:38.693Z,21.79
2022-09-14T00:19:50.957Z,21.76
2022-09-14T00:20:03.006Z,21.76
2022-09-14T00:20:15.067Z,21.73
2022-09-14T00:20:26.940Z,21.56
2022-09-14T00:20:38.865Z,21.57
2022-09-14T00:20:50.751Z,21.56
2022-09-14T00:21:05.240Z,21.53
2022-09-14T00:21:17.153Z,21.52
2022-09-14T00:21:29.087Z,21.51
2022-09-14T00:21:42.457Z,21.52
2022-09-14T00:21:57.115Z,21.56
2022-09-14T00:22:09.143Z,21.54
2022-09-14T00:22:21.087Z,21.59
2022-09-14T00:22:32.980Z,21.58
2022-09-14T00:22:44.858Z,21.54
2022-09-14T00:22:56.888Z,21.46
2022-09-14T00:23:08.788Z,21.45
2022-09-14T00:23:20.671Z,21.34
2022-09-14T00:23:35.463Z,21.40
2022-09-14T00:23:47.487Z,21.43
2022-09-14T00:23:59.407Z,21.49
2022-09-14T00:24:12.226Z,21.51
2022-09-14T00:24:26.059Z,21.56
2022-09-14T00:24:38.056Z,21.58
2022-09-14T00:24:50.376Z,21.62
2022-09-14T00:25:02.319Z,21.65
2022-09-14T00:25:14.372Z,21.66
2022-09-14T00:25:26.902Z,21.67
2022-09-14T00:25:38.819Z,21.66
2022-09-14T00:25:50.864Z,21.69
2022-09-14T00:26:05.142Z,21.69
2022-09-14T00:26:22.593Z,21.72
2022-09-14T00:26:35.199Z,21.71
2022-09-14T00:26:47.137Z,21.70
2022-09-14T00:26:59.157Z,21.57
2022-09-14T00:27:11.036Z,21.54
2022-09-14T00:27:23.109Z,21.57
2022-09-14T00:27:34.997Z,21.60
2022-09-14T00:27:46.892Z,21.61
2022-09-14T00:27:58.787Z,21.63
2022-09-14T00:28:11.864Z,21.63
2022-09-14T00:28:23.753Z,21.66
2022-09-14T00:28:51.325Z,21.66
2022-09-14T00:29:04.847Z,21.66
2022-09-14T00:29:17.258Z,21.64
2022-09-14T00:29:30.408Z,21.67
2022-09-14T00:29:42.359Z,21.66
2022-09-14T00:29:54.299Z,21.65
2022-09-14T00:30:06.990Z,21.59
2022-09-14T00:30:19.509Z,21.59
2022-09-14T00:30:31.571Z,21.57
2022-09-14T00:30:43.455Z,21.56
2022-09-14T00:30:55.334Z,21.54
2022-09-14T00:31:08.149Z,21.52
2022-09-14T00:31:21.579Z,21.57
2022-09-14T00:31:36.181Z,21.58
2022-09-14T00:31:48.491Z,21.58
2022-09-14T00:32:00.614Z,21.60
2022-09-14T00:32:12.706Z,21.60
2022-09-14T00:32:24.675Z,21.60
2022-09-14T00:32:36.549Z,21.59
2022-09-14T00:32:48.413Z,21.57
2022-09-14T00:33:00.350Z,21.51
2022-09-14T00:33:12.649Z,21.52
2022-09-14T00:33:24.668Z,21.50
2022-09-14T00:33:37.280Z,21.47
2022-09-14T00:33:50.800Z,21.48
2022-09-14T00:34:04.900Z,21.47
2022-09-14T00:34:17.835Z,21.51
2022-09-14T00:34:30.084Z,21.52
2022-09-14T00:34:41.960Z,21.54
2022-09-14T00:34:53.896Z,21.54
2022-09-14T00:35:06.829Z,21.56
2022-09-14T00:35:19.110Z,21.57
2022-09-14T00:35:31.013Z,21.57
2022-09-14T00:35:43.036Z,21.57
2022-09-14T00:35:54.920Z,21.61
2022-09-14T00:36:12.574Z,21.59
2022-09-14T00:36:27.413Z,21.61
2022-09-14T00:36:42.859Z,21.63
2022-09-14T00:36:55.714Z,21.64
2022-09-14T00:37:07.681Z,21.62
2022-09-14T00:37:19.641Z,21.62
2022-09-14T00:37:31.580Z,21.63
2022-09-14T00:37:43.576Z,21.63
2022-09-14T00:37:55.525Z,21.64
2022-09-14T00:38:09.716Z,21.66
2022-09-14T00:38:21.605Z,21.67
2022-09-14T00:38:33.660Z,21.69
2022-09-14T00:38:46.677Z,21.69
2022-09-14T00:39:00.493Z,21.71
2022-09-14T00:39:13.330Z,21.71
2022-09-14T00:39:25.388Z,21.72
2022-09-14T00:39:37.474Z,21.71
2022-09-14T00:39:50.281Z,21.71
2022-09-14T00:40:04.421Z,21.73
2022-09-14T00:40:16.775Z,21.71
2022-09-14T00:40:29.043Z,21.72
2022-09-14T00:40:40.935Z,21.72
2022-09-14T00:41:00.008Z,21.71
2022-09-14T00:41:17.492Z,21.71
2022-09-14T00:41:34.739Z,21.73
2022-09-14T00:41:48.905Z,21.74
2022-09-14T00:42:00.800Z,21.74
2022-09-14T00:42:16.380Z,21.74
2022-09-14T00:42:28.293Z,21.74
2022-09-14T00:42:40.184Z,21.74
2022-09-14T00:42:52.055Z,21.73
2022-09-14T00:43:12.634Z,21.74
2022-09-14T00:43:24.949Z,21.76
2022-09-14T00:43:57.459Z,21.75
2022-09-14T00:44:12.571Z,21.77
2022-09-14T00:44:24.386Z,21.77
2022-09-14T00:44:36.207Z,21.76
2022-09-14T00:44:48.042Z,21.76
2022-09-14T00:45:08.162Z,21.75
2022-09-14T00:45:21.982Z,21.74
2022-09-14T00:45:33.972Z,21.74
2022-09-14T00:45:45.892Z,21.76
2022-09-14T00:46:01.623Z,21.77
2022-09-14T00:46:13.717Z,21.77
2022-09-14T00:46:27.784Z,21.77
2022-09-14T00:46:48.377Z,21.76
2022-09-14T00:47:02.604Z,21.75
2022-09-14T00:47:16.848Z,21.74
2022-09-14T00:47:31.774Z,21.74
2022-09-14T00:47:43.906Z,21.73
2022-09-14T00:47:56.700Z,21.73
2022-09-14T00:48:09.415Z,21.73
2022-09-14T00:48:24.696Z,21.73
2022-09-14T00:48:36.707Z,21.73
2022-09-14T00:48:48.999Z,21.73
2022-09-14T00:49:02.887Z,21.71
2022-09-14T00:49:29.891Z,21.71
2022-09-14T00:49:43.525Z,21.69
2022-09-14T00:49:55.657Z,21.67
2022-09-14T00:50:08.024Z,21.64
2022-09-14T00:50:20.991Z,21.59
2022-09-14T00:50:33.015Z,21.57
2022-09-14T00:50:45.794Z,21.56
2022-09-14T00:50:57.831Z,21.57
2022-09-14T00:51:10.168Z,21.57
2022-09-14T00:51:22.450Z,21.54
2022-09-14T00:51:37.652Z,21.53
2022-09-14T00:51:52.317Z,21.52
2022-09-14T00:52:16.048Z,21.52
2022-09-14T00:52:32.812Z,21.51
2022-09-14T00:52:49.165Z,21.50
2022-09-14T00:53:01.203Z,21.47
2022-09-14T00:53:13.113Z,21.46
2022-09-14T00:53:25.142Z,21.45
2022-09-14T00:53:37.150Z,21.39
2022-09-14T00:53:49.830Z,21.35
2022-09-14T00:54:03.516Z,21.30
2022-09-14T00:54:15.411Z,21.20
2022-09-14T00:54:27.351Z,21.20
2022-09-14T00:54:42.361Z,21.19
2022-09-14T00:54:57.219Z,21.22
2022-09-14T00:55:12.811Z,21.23
2022-09-14T00:55:25.463Z,21.09
2022-09-14T00:55:37.684Z,21.04
2022-09-14T00:55:51.075Z,21.04
2022-09-14T00:56:03.151Z,21.03
2022-09-14T00:56:15.386Z,21.00
2022-09-14T00:56:27.323Z,20.95
2022-09-14T00:56:39.352Z,20.93
2022-09-14T00:56:51.529Z,20.98
2022-09-14T00:57:03.957Z,20.96
2022-09-14T00:57:17.435Z,20.96
2022-09-14T00:57:37.136Z,20.98
2022-09-14T00:57:52.029Z,21.01
2022-09-14T00:58:03.955Z,21.01
2022-09-14T00:58:15.852Z,20.98
2022-09-14T00:58:27.980Z,20.96
2022-09-14T00:58:41.296Z,20.95
2022-09-14T00:58:57.539Z,20.99
2022-09-14T00:59:16.130Z,20.81
2022-09-14T00:59:31.361Z,20.85
2022-09-14T00:59:44.169Z,20.85
2022-09-14T00:59:57.203Z,20.88
2022-09-14T01:00:11.200Z,20.89
2022-09-14T01:00:27.257Z,20.91
2022-09-14T01:00:39.183Z,20.88
2022-09-14T01:00:51.150Z,20.89
2022-09-14T01:01:03.416Z,20.95
2022-09-14T01:01:15.970Z,20.97
2022-09-14T01:01:28.619Z,20.98
2022-09-14T01:01:41.087Z,21.02
2022-09-14T01:01:53.480Z,21.05
2022-09-14T01:02:08.991Z,21.06
2022-09-14T01:02:23.146Z,21.08
2022-09-14T01:02:35.346Z,21.10
2022-09-14T01:02:47.406Z,21.11
2022-09-14T01:03:00.021Z,21.13
2022-09-14T01:03:11.900Z,21.13
2022-09-14T01:03:23.773Z,21.17
2022-09-14T01:03:36.491Z,21.18
2022-09-14T01:03:48.611Z,21.19
2022-09-14T01:04:00.627Z,21.21
2022-09-14T01:04:12.509Z,21.22
2022-09-14T01:04:24.480Z,21.23
2022-09-14T01:04:37.153Z,21.24
2022-09-14T01:04:49.886Z,21.25
2022-09-14T01:05:02.013Z,21.27
2022-09-14T01:05:14.814Z,21.28
2022-09-14T01:05:42.599Z,21.29
2022-09-14T01:06:26.152Z,21.31
2022-09-14T01:06:44.320Z,21.32
2022-09-14T01:06:59.985Z,21.33
2022-09-14T01:07:29.836Z,21.32
2022-09-14T01:08:05.927Z,21.34
2022-09-14T01:08:31.269Z,21.34
2022-09-14T01:08:49.016Z,21.32
2022-09-14T01:09:18.735Z,21.33
2022-09-14T01:10:07.613Z,21.36
2022-09-14T01:10:47.035Z,21.37
2022-09-14T01:11:11.757Z,21.34
2022-09-14T01:11:35.639Z,21.32
2022-09-14T01:11:59.310Z,21.32
2022-09-14T01:12:55.489Z,21.21
2022-09-14T01:13:27.251Z,21.23
2022-09-14T01:13:47.787Z,21.28
2022-09-14T01:14:42.776Z,21.29
2022-09-14T01:15:15.176Z,21.25
2022-09-14T01:15:45.180Z,21.17
2022-09-14T01:16:02.731Z,21.20
2022-09-14T01:16:30.911Z,21.17
2022-09-14T01:17:09.005Z,21.19
2022-09-14T01:17:26.699Z,21.23
2022-09-14T01:18:00.001Z,21.28
2022-09-14T01:18:30.154Z,21.32
2022-09-14T01:18:48.411Z,21.34
2022-09-14T01:19:06.255Z,21.37
2022-09-14T01:19:42.760Z,21.38
2022-09-14T01:20:00.487Z,21.39
2022-09-14T01:20:38.609Z,21.40
2022-09-14T01:21:10.111Z,21.35
2022-09-14T01:21:32.207Z,21.24
2022-09-14T01:21:44.897Z,21.29
2022-09-14T01:22:09.080Z,21.29
2022-09-14T01:22:32.481Z,21.30
2022-09-14T01:22:52.790Z,21.30
2022-09-14T01:23:16.730Z,21.32
2022-09-14T01:23:50.515Z,21.35
2022-09-14T01:24:23.156Z,21.35
2022-09-14T01:25:02.342Z,21.32
2022-09-14T01:25:53.268Z,21.31
2022-09-14T01:26:22.983Z,21.26
2022-09-14T01:27:29.264Z,21.20
2022-09-14T01:27:44.013Z,21.21
2022-09-14T01:28:02.198Z,21.22
2022-09-14T01:28:22.570Z,21.15
2022-09-14T01:28:42.571Z,21.14
2022-09-14T01:29:22.376Z,21.17
2022-09-14T01:29:40.010Z,21.20
2022-09-14T01:30:01.678Z,21.23
2022-09-14T01:30:23.930Z,21.27
2022-09-14T01:30:38.866Z,21.29
2022-09-14T01:30:53.990Z,21.32
2022-09-14T01:31:13.196Z,21.34
2022-09-14T01:31:37.748Z,21.34
2022-09-14T01:31:58.864Z,21.37
2022-09-14T01:32:19.693Z,21.38
2022-09-14T01:32:35.352Z,21.38
2022-09-14T01:32:59.796Z,21.38
2022-09-14T01:33:34.697Z,21.37
2022-09-14T01:33:55.414Z,21.38
2022-09-14T01:34:32.937Z,21.40
2022-09-14T01:34:57.820Z,21.38
2022-09-14T01:35:49.106Z,21.39
2022-09-14T01:36:04.313Z,21.40
2022-09-14T01:36:17.778Z,21.41
2022-09-14T01:36:34.884Z,21.42
2022-09-14T01:36:53.089Z,21.43
2022-09-14T01:37:35.034Z,21.44
2022-09-14T01:37:55.912Z,21.44
2022-09-14T01:38:12.402Z,21.46
2022-09-14T01:38:32.036Z,21.43
2022-09-14T01:38:48.923Z,21.42
2022-09-14T01:39:02.328Z,21.41
2022-09-14T01:39:16.532Z,21.40
2022-09-14T01:39:31.569Z,21.41
2022-09-14T01:39:50.154Z,21.40
2022-09-14T01:40:13.105Z,21.42
2022-09-14T01:40:31.003Z,21.42
2022-09-14T01:40:47.084Z,21.43
2022-09-14T01:41:02.995Z,21.44
2022-09-14T01:41:20.266Z,21.46
2022-09-14T01:41:33.878Z,21.48
2022-09-14T01:41:47.724Z,21.50
2022-09-14T01:42:01.445Z,21.50
2022-09-14T01:42:14.696Z,21.50
2022-09-14T01:42:28.750Z,21.51
2022-09-14T01:42:44.414Z,21.54
2022-09-14T01:43:04.081Z,21.54
2022-09-14T01:43:26.414Z,21.56
2022-09-14T01:43:42.521Z,21.56
2022-09-14T01:44:00.316Z,21.56
2022-09-14T01:44:25.379Z,21.58
2022-09-14T01:44:41.911Z,21.58
2022-09-14T01:45:00.131Z,21.58
2022-09-14T01:45:16.472Z,21.57
2022-09-14T01:45:30.652Z,21.58
2022-09-14T01:45:49.721Z,21.58
2022-09-14T01:46:16.315Z,21.54
2022-09-14T01:46:39.874Z,21.56
2022-09-14T01:46:57.040Z,21.56
2022-09-14T01:47:16.558Z,21.54
2022-09-14T01:47:36.671Z,21.56
2022-09-14T01:47:54.786Z,21.54
2022-09-14T01:48:10.532Z,21.54
2022-09-14T01:48:30.621Z,21.56
2022-09-14T01:49:04.796Z,21.57
2022-09-14T01:49:32.165Z,21.58
2022-09-14T01:49:49.223Z,21.61
2022-09-14T01:50:11.717Z,21.59
2022-09-14T01:50:34.008Z,21.59
2022-09-14T01:50:53.015Z,21.58
2022-09-14T01:51:12.517Z,21.57
2022-09-14T01:51:36.252Z,21.54
2022-09-14T01:51:51.864Z,21.53
2022-09-14T01:52:16.471Z,21.53
2022-09-14T01:52:39.655Z,21.48
2022-09-14T01:52:59.503Z,21.44
2022-09-14T01:53:20.045Z,21.45
2022-09-14T01:53:43.589Z,21.42
2022-09-14T01:54:12.632Z,21.39
2022-09-14T01:54:33.711Z,21.29
2022-09-14T01:54:54.764Z,21.17
2022-09-14T01:55:13.525Z,21.17
2022-09-14T01:55:31.714Z,21.19
2022-09-14T01:55:49.010Z,21.18
2022-09-14T01:56:07.593Z,21.13
2022-09-14T01:56:26.571Z,21.08
2022-09-14T01:56:43.119Z,21.00
2022-09-14T01:57:00.340Z,21.02
2022-09-14T01:57:21.715Z,20.96
2022-09-14T01:57:36.134Z,20.83
2022-09-14T01:58:11.660Z,20.81
2022-09-14T01:58:32.591Z,20.77
2022-09-14T01:58:50.265Z,20.65
2022-09-14T01:59:05.130Z,20.62
2022-09-14T01:59:28.984Z,20.63
2022-09-14T01:59:46.172Z,20.57
2022-09-14T02:00:02.320Z,20.57
2022-09-14T02:00:17.564Z,20.57
2022-09-14T02:00:31.012Z,20.55
2022-09-14T02:00:46.393Z,20.48
2022-09-14T02:01:01.928Z,20.45
2022-09-14T02:01:19.866Z,20.37
2022-09-14T02:01:40.109Z,20.40
2022-09-14T02:02:00.215Z,20.41
2022-09-14T02:02:14.603Z,20.38
2022-09-14T02:02:34.546Z,20.39
2022-09-14T02:03:01.827Z,20.40
2022-09-14T02:03:18.643Z,20.40
2022-09-14T02:03:37.898Z,20.39
2022-09-14T02:03:55.535Z,20.32
2022-09-14T02:04:10.360Z,20.25
2022-09-14T02:04:39.106Z,20.10
2022-09-14T02:05:08.986Z,19.91
2022-09-14T02:05:46.045Z,19.69
2022-09-14T02:06:10.543Z,19.57
2022-09-14T02:06:34.220Z,19.44
2022-09-14T02:06:48.853Z,19.39
2022-09-14T02:07:00.814Z,19.32
2022-09-14T02:07:12.899Z,19.31
2022-09-14T02:07:24.965Z,19.28
2022-09-14T02:07:37.987Z,19.26
2022-09-14T02:07:50.000Z,19.24
2022-09-14T02:08:02.529Z,19.23
2022-09-14T02:08:14.675Z,19.19
2022-09-14T02:08:29.649Z,19.16
2022-09-14T02:08:41.861Z,19.18
2022-09-14T02:08:54.365Z,19.15
2022-09-14T02:09:10.162Z,19.08
2022-09-14T02:09:26.781Z,19.01
2022-09-14T02:09:39.603Z,18.90
2022-09-14T02:09:54.336Z,18.90
2022-09-14T02:10:11.596Z,18.81
2022-09-14T02:10:24.411Z,18.80
2022-09-14T02:10:36.703Z,18.76
2022-09-14T02:10:48.606Z,18.77
2022-09-14T02:11:01.870Z,18.71
2022-09-14T02:11:13.734Z,18.71
2022-09-14T02:11:25.880Z,18.70
2022-09-14T02:11:38.542Z,18.70
2022-09-14T02:11:50.444Z,18.69
2022-09-14T02:12:02.573Z,18.69
2022-09-14T02:12:16.087Z,18.67
2022-09-14T02:12:27.991Z,18.61
2022-09-14T02:12:40.677Z,18.63
2022-09-14T02:12:53.724Z,18.62
2022-09-14T02:13:07.063Z,18.61
2022-09-14T02:13:19.206Z,18.61
2022-09-14T02:13:31.130Z,18.61
2022-09-14T02:13:43.371Z,18.61
2022-09-14T02:13:55.578Z,18.61
2022-09-14T02:14:07.691Z,18.63
2022-09-14T02:14:19.803Z,18.65
2022-09-14T02:14:31.953Z,18.66
2022-09-14T02:14:46.086Z,18.66
2022-09-14T02:14:58.219Z,18.67
2022-09-14T02:15:12.655Z,18.66
2022-09-14T02:15:26.240Z,18.70
2022-09-14T02:15:39.433Z,18.72
2022-09-14T02:15:51.544Z,18.73
2022-09-14T02:16:03.616Z,18.75
2022-09-14T02:16:15.705Z,18.76
2022-09-14T02:16:28.212Z,18.78
2022-09-14T02:16:43.428Z,18.79
2022-09-14T02:16:55.754Z,18.79
2022-09-14T02:17:08.256Z,18.81
2022-09-14T02:17:21.163Z,18.81
2022-09-14T02:17:33.445Z,18.81
2022-09-14T02:17:45.401Z,18.82
2022-09-14T02:17:57.358Z,18.83
2022-09-14T02:18:09.244Z,18.82
2022-09-14T02:18:21.952Z,18.84
2022-09-14T02:18:33.988Z,18.83
2022-09-14T02:18:46.860Z,18.84
2022-09-14T02:19:02.036Z,18.84
2022-09-14T02:19:14.299Z,18.82
2022-09-14T02:19:31.167Z,18.79
2022-09-14T02:19:55.969Z,18.80
2022-09-14T02:20:14.141Z,18.76
2022-09-14T02:20:34.852Z,18.75
2022-09-14T02:20:54.157Z,18.75
2022-09-14T02:21:14.334Z,18.80
2022-09-14T02:21:29.303Z,18.81
2022-09-14T02:21:41.396Z,18.84
2022-09-14T02:21:53.579Z,18.81
2022-09-14T02:22:05.713Z,18.85
2022-09-14T02:22:17.686Z,18.81
2022-09-14T02:22:31.179Z,18.82
2022-09-14T02:22:43.286Z,18.85
2022-09-14T02:22:55.559Z,18.82
2022-09-14T02:23:08.076Z,18.80
2022-09-14T02:23:20.138Z,18.79
2022-09-14T02:23:32.369Z,18.81
2022-09-14T02:23:44.800Z,18.76
2022-09-14T02:23:59.018Z,18.72
2022-09-14T02:24:12.260Z,18.73
2022-09-14T02:24:24.173Z,18.62
2022-09-14T02:24:36.571Z,18.65
2022-09-14T02:24:49.243Z,18.66
2022-09-14T02:25:01.941Z,18.67
2022-09-14T02:25:14.332Z,18.68
2022-09-14T02:25:26.933Z,18.69
2022-09-14T02:25:41.044Z,18.70
2022-09-14T02:25:53.180Z,18.72
2022-09-14T02:26:05.478Z,18.73
2022-09-14T02:26:19.838Z,18.73
2022-09-14T02:26:32.486Z,18.75
2022-09-14T02:26:45.411Z,18.75
2022-09-14T02:26:58.515Z,18.74
2022-09-14T02:27:10.613Z,18.76
2022-09-14T02:27:22.782Z,18.79
2022-09-14T02:27:34.655Z,18.82
2022-09-14T02:27:48.101Z,18.84
2022-09-14T02:27:59.963Z,18.86
2022-09-14T02:28:12.235Z,18.89
2022-09-14T02:28:24.145Z,18.91
2022-09-14T02:28:36.331Z,18.92
2022-09-14T02:28:49.035Z,18.93
2022-09-14T02:29:01.094Z,18.94
2022-09-14T02:29:13.035Z,18.95
2022-09-14T02:29:24.999Z,18.95
2022-09-14T02:29:37.524Z,18.98
2022-09-14T02:29:50.123Z,19.01
2022-09-14T02:30:02.673Z,19.00
2022-09-14T02:30:16.333Z,19.01
2022-09-14T02:30:35.235Z,19.03
2022-09-14T02:31:07.721Z,19.07
2022-09-14T02:31:25.632Z,19.11
2022-09-14T02:31:54.084Z,19.14
2022-09-14T02:32:09.021Z,19.15
2022-09-14T02:32:26.734Z,19.18
2022-09-14T02:33:09.017Z,19.20
2022-09-14T02:33:59.104Z,19.21
2022-09-14T02:34:23.575Z,19.20
2022-09-14T02:35:12.262Z,19.15
2022-09-14T02:35:42.306Z,19.13
2022-09-14T02:35:57.584Z,19.10
2022-09-14T02:36:19.428Z,19.10
2022-09-14T02:36:49.150Z,19.10
2022-09-14T02:37:21.809Z,19.07
2022-09-14T02:37:57.255Z,19.04
2022-09-14T02:38:49.309Z,19.00
2022-09-14T02:39:13.191Z,18.96
2022-09-14T02:39:33.745Z,19.00
2022-09-14T02:40:24.887Z,18.93
2022-09-14T02:40:48.641Z,18.93
2022-09-14T02:41:13.829Z,18.93
2022-09-14T02:41:57.728Z,18.95
2022-09-14T02:42:46.994Z,18.99
2022-09-14T02:43:17.564Z,19.03
2022-09-14T02:43:51.020Z,19.07
2022-09-14T02:44:17.816Z,19.07
2022-09-14T02:44:38.052Z,19.11
2022-09-14T02:45:07.239Z,19.13
2022-09-14T02:45:36.843Z,19.18
2022-09-14T02:46:17.012Z,19.21
2022-09-14T02:46:41.292Z,19.26
2022-09-14T02:47:06.471Z,19.27
2022-09-14T02:47:42.725Z,19.28
2022-09-14T02:48:03.308Z,19.31
2022-09-14T02:48:17.935Z,19.32
2022-09-14T02:48:41.732Z,19.34
2022-09-14T02:49:33.260Z,19.39
2022-09-14T02:49:57.735Z,19.43
2022-09-14T02:50:09.637Z,19.42
2022-09-14T02:50:24.402Z,19.43
2022-09-14T02:51:03.199Z,19.43
2022-09-14T02:51:36.089Z,19.45
2022-09-14T02:51:56.657Z,19.43
2022-09-14T02:52:26.010Z,19.43
2022-09-14T02:53:17.162Z,19.43
2022-09-14T02:53:52.233Z,19.44
2022-09-14T02:54:11.635Z,19.44
2022-09-14T02:54:40.529Z,19.45
2022-09-14T02:54:58.933Z,19.47
2022-09-14T02:55:14.617Z,19.46
2022-09-14T02:55:31.735Z,19.49
2022-09-14T02:55:49.378Z,19.49
2022-09-14T02:56:05.919Z,19.51
2022-09-14T02:56:19.395Z,19.51
2022-09-14T02:56:32.406Z,19.52
2022-09-14T02:56:47.847Z,19.53
2022-09-14T02:57:03.739Z,19.53
2022-09-14T02:57:15.730Z,19.53
2022-09-14T02:57:27.660Z,19.52
2022-09-14T02:57:59.040Z,19.50
2022-09-14T02:58:13.011Z,19.51
2022-09-14T02:58:24.920Z,19.51
2022-09-14T02:58:44.769Z,19.51
2022-09-14T02:58:56.800Z,19.50
2022-09-14T02:59:08.713Z,19.51
2022-09-14T02:59:22.012Z,19.50
2022-09-14T02:59:33.984Z,19.51
2022-09-14T02:59:45.885Z,19.50
2022-09-14T02:59:57.814Z,19.50
2022-09-14T03:00:09.977Z,19.48
2022-09-14T03:00:21.882Z,19.48
2022-09-14T03:00:40.162Z,19.48
2022-09-14T03:00:52.282Z,19.48
2022-09-14T03:01:06.303Z,19.48
2022-09-14T03:01:20.667Z,19.49
2022-09-14T03:01:32.865Z,19.47
2022-09-14T03:01:44.871Z,19.48
2022-09-14T03:02:00.174Z,19.47
2022-09-14T03:02:12.284Z,19.46
2022-09-14T03:02:24.354Z,19.46
2022-09-14T03:02:36.358Z,19.45
2022-09-14T03:02:48.238Z,19.45
2022-09-14T03:03:03.108Z,19.44
2022-09-14T03:03:18.238Z,19.44
2022-09-14T03:03:33.504Z,19.44
2022-09-14T03:03:47.468Z,19.43
2022-09-14T03:03:59.399Z,19.42
2022-09-14T03:04:11.290Z,19.42
2022-09-14T03:04:23.256Z,19.42
2022-09-14T03:04:35.179Z,19.42
2022-09-14T03:04:47.074Z,19.41
2022-09-14T03:04:59.011Z,19.41
2022-09-14T03:05:10.943Z,19.41
2022-09-14T03:05:23.006Z,19.41
2022-09-14T03:05:35.003Z,19.40
2022-09-14T03:05:47.502Z,19.39
2022-09-14T03:05:59.473Z,19.40
2022-09-14T03:06:14.330Z,19.41
2022-09-14T03:06:28.240Z,19.39
2022-09-14T03:06:40.124Z,19.39
2022-09-14T03:06:54.735Z,19.41
2022-09-14T03:07:06.631Z,19.41
2022-09-14T03:07:18.530Z,19.41
2022-09-14T03:07:30.405Z,19.41
2022-09-14T03:07:42.325Z,19.42
2022-09-14T03:07:54.472Z,19.43
2022-09-14T03:08:07.118Z,19.43
2022-09-14T03:08:19.038Z,19.44
2022-09-14T03:08:32.264Z,19.45
2022-09-14T03:08:44.950Z,19.46
2022-09-14T03:08:56.822Z,19.46
2022-09-14T03:09:08.912Z,19.46
2022-09-14T03:09:20.915Z,19.47
2022-09-14T03:09:37.557Z,19.48
2022-09-14T03:09:49.591Z,19.49
2022-09-14T03:10:01.474Z,19.51
2022-09-14T03:10:13.451Z,19.50
2022-09-14T03:10:25.989Z,19.49
2022-09-14T03:10:42.473Z,19.51
2022-09-14T03:10:54.820Z,19.51
2022-09-14T03:11:06.764Z,19.51
2022-09-14T03:11:18.766Z,19.50
2022-09-14T03:11:30.959Z,19.49
2022-09-14T03:11:42.868Z,19.48
2022-09-14T03:11:54.750Z,19.46
2022-09-14T03:12:09.700Z,19.44
2022-09-14T03:12:24.177Z,19.44
2022-09-14T03:12:38.143Z,19.40
2022-09-14T03:12:50.055Z,19.39
2022-09-14T03:13:02.003Z,19.38
2022-09-14T03:13:16.190Z,19.36
2022-09-14T03:13:28.213Z,19.36
2022-09-14T03:13:40.199Z,19.36
2022-09-14T03:13:52.153Z,19.35
2022-09-14T03:14:04.058Z,19.35
2022-09-14T03:14:16.207Z,19.36
2022-09-14T03:14:30.985Z,19.37
2022-09-14T03:14:42.882Z,19.36
2022-09-14T03:14:54.767Z,19.36
2022-09-14T03:15:07.281Z,19.33
2022-09-14T03:15:19.300Z,19.36
2022-09-14T03:15:31.348Z,19.36
2022-09-14T03:15:43.826Z,19.37
2022-09-14T03:15:58.520Z,19.39
2022-09-14T03:16:14.048Z,19.40
2022-09-14T03:16:26.070Z,19.41
2022-09-14T03:16:38.633Z,19.43
2022-09-14T03:16:50.610Z,19.44
2022-09-14T03:17:02.500Z,19.46
2022-09-14T03:17:14.398Z,19.45
2022-09-14T03:17:26.268Z,19.45
2022-09-14T03:17:38.177Z,19.45
2022-09-14T03:17:51.309Z,19.45
2022-09-14T03:18:04.506Z,19.45
2022-09-14T03:18:18.380Z,19.44
2022-09-14T03:18:30.272Z,19.43
2022-09-14T03:18:42.672Z,19.43
2022-09-14T03:18:54.603Z,19.42
2022-09-14T03:19:06.544Z,19.43
2022-09-14T03:19:18.508Z,19.42
2022-09-14T03:19:30.836Z,19.42
2022-09-14T03:19:42.757Z,19.39
2022-09-14T03:19:54.635Z,19.39
2022-09-14T03:20:06.791Z,19.39
2022-09-14T03:20:25.822Z,19.40
2022-09-14T03:20:38.030Z,19.40
2022-09-14T03:20:49.920Z,19.39
2022-09-14T03:21:10.021Z,19.39
2022-09-14T03:21:22.053Z,19.39
2022-09-14T03:21:33.952Z,19.38
2022-09-14T03:21:45.861Z,19.39
2022-09-14T03:21:58.522Z,19.38
2022-09-14T03:22:10.419Z,19.40
2022-09-14T03:22:22.586Z,19.39
2022-09-14T03:22:34.562Z,19.39
2022-09-14T03:22:47.206Z,19.39
2022-09-14T03:22:59.784Z,19.39
2022-09-14T03:23:12.617Z,19.40
2022-09-14T03:23:24.502Z,19.40
2022-09-14T03:23:43.902Z,19.38
2022-09-14T03:23:57.712Z,19.38
2022-09-14T03:24:09.646Z,19.38
2022-09-14T03:24:21.700Z,19.39
2022-09-14T03:24:33.682Z,19.37
2022-09-14T03:24:45.577Z,19.38
2022-09-14T03:24:57.445Z,19.38
2022-09-14T03:25:09.873Z,19.39
2022-09-14T03:25:24.882Z,19.36
2022-09-14T03:25:38.804Z,19.36
2022-09-14T03:25:50.667Z,19.35
2022-09-14T03:26:07.213Z,19.36
2022-09-14T03:26:23.164Z,19.35
2022-09-14T03:26:38.143Z,19.34
2022-09-14T03:26:52.109Z,19.33
2022-09-14T03:27:04.212Z,19.33
2022-09-14T03:27:16.088Z,19.32
2022-09-14T03:27:28.016Z,19.33
2022-09-14T03:27:40.798Z,19.34
2022-09-14T03:27:54.984Z,19.34
2022-09-14T03:28:15.547Z,19.34
2022-09-14T03:28:27.432Z,19.34
2022-09-14T03:28:39.681Z,19.34
2022-09-14T03:28:53.766Z,19.34
2022-09-14T03:29:06.711Z,19.35
2022-09-14T03:29:18.584Z,19.34
2022-09-14T03:29:30.859Z,19.34
2022-09-14T03:29:42.755Z,19.35
2022-09-14T03:29:54.647Z,19.36
2022-09-14T03:30:07.833Z,19.35
2022-09-14T03:30:20.443Z,19.35
2022-09-14T03:30:33.217Z,19.37